createdAt,value
2018-10-02T00:01:23.684Z,1.83
2018-10-02T00:03:52.015Z,1.60
2018-10-02T00:06:21.114Z,1.53
2018-10-02T00:08:49.358Z,1.60
2018-10-02T00:11:23.869Z,1.60
2018-10-02T00:13:57.504Z,1.60
2018-10-02T00:16:25.850Z,1.43
2018-10-02T00:18:54.061Z,1.30
2018-10-02T00:21:22.290Z,1.20
2018-10-02T00:23:50.532Z,1.57
2018-10-02T00:26:18.803Z,1.63
2018-10-02T00:28:47.033Z,1.33
2018-10-02T00:31:15.299Z,1.50
2018-10-02T00:33:43.522Z,1.17
2018-10-02T00:36:11.760Z,1.13
2018-10-02T00:38:39.981Z,1.60
2018-10-02T00:41:08.253Z,1.50
2018-10-02T00:43:36.537Z,1.10
2018-10-02T00:46:04.783Z,1.40
2018-10-02T00:48:33.049Z,1.17
2018-10-02T00:51:01.300Z,1.53
2018-10-02T00:53:29.531Z,1.50
2018-10-02T00:55:57.769Z,1.43
2018-10-02T00:58:26.038Z,1.30
2018-10-02T01:00:54.323Z,1.70
2018-10-02T01:03:22.695Z,1.67
2018-10-02T01:05:50.974Z,1.40
2018-10-02T01:08:19.272Z,2.20
2018-10-02T01:10:47.540Z,2.07
2018-10-02T01:13:15.824Z,1.63
2018-10-02T01:15:44.058Z,1.00
2018-10-02T01:18:12.266Z,1.90
2018-10-02T01:20:40.509Z,1.50
2018-10-02T01:23:08.787Z,1.80
2018-10-02T01:25:37.062Z,1.93
2018-10-02T01:28:05.743Z,2.07
2018-10-02T01:30:34.008Z,1.87
2018-10-02T01:33:02.917Z,2.00
2018-10-02T01:35:31.172Z,1.93
2018-10-02T01:37:59.432Z,1.70
2018-10-02T01:40:29.272Z,2.40
2018-10-02T01:42:57.522Z,3.07
2018-10-02T01:45:26.106Z,2.83
2018-10-02T01:47:54.510Z,2.77
2018-10-02T01:50:22.837Z,2.57
2018-10-02T01:52:51.073Z,2.60
2018-10-02T01:55:19.444Z,2.40
2018-10-02T01:57:47.815Z,2.97
2018-10-02T02:00:16.127Z,2.53
2018-10-02T02:02:44.372Z,3.40
2018-10-02T02:05:12.615Z,2.40
2018-10-02T02:07:41.218Z,2.43
2018-10-02T02:10:09.845Z,2.83
2018-10-02T02:12:38.096Z,2.10
2018-10-02T02:15:06.447Z,2.47
2018-10-02T02:17:34.822Z,2.37
2018-10-02T02:20:03.091Z,2.60
2018-10-02T02:22:31.357Z,1.97
2018-10-02T02:24:59.713Z,1.90
2018-10-02T02:27:28.059Z,2.00
2018-10-02T02:29:56.334Z,2.13
2018-10-02T02:32:24.606Z,2.20
2018-10-02T02:34:52.883Z,1.80
2018-10-02T02:37:21.194Z,2.07
2018-10-02T02:39:49.406Z,1.90
2018-10-02T02:42:17.869Z,1.80
2018-10-02T02:44:46.141Z,1.90
2018-10-02T02:47:19.759Z,1.67
2018-10-02T02:49:53.478Z,2.17
2018-10-02T02:52:23.588Z,2.30
2018-10-02T02:54:52.615Z,2.00
2018-10-02T02:57:20.971Z,2.30
2018-10-02T02:59:49.298Z,1.83
2018-10-02T03:02:17.549Z,1.93
2018-10-02T03:04:46.015Z,2.03
2018-10-02T03:07:14.258Z,1.90
2018-10-02T03:09:42.526Z,2.23
2018-10-02T03:12:10.990Z,1.87
2018-10-02T03:14:39.322Z,1.80
2018-10-02T03:17:08.262Z,1.63
2018-10-02T03:19:36.855Z,1.83
2018-10-02T03:22:05.298Z,1.60
2018-10-02T03:24:33.974Z,1.47
2018-10-02T03:27:02.426Z,1.93
2018-10-02T03:29:30.711Z,2.03
2018-10-02T03:31:59.002Z,1.70
2018-10-02T03:34:28.508Z,2.40
2018-10-02T03:36:59.933Z,2.03
2018-10-02T03:39:28.217Z,1.80
2018-10-02T03:41:56.688Z,2.30
2018-10-02T03:44:25.042Z,2.07
2018-10-02T03:46:53.334Z,2.10
2018-10-02T03:49:21.709Z,1.80
2018-10-02T03:51:50.054Z,2.40
2018-10-02T03:54:18.442Z,2.50
2018-10-02T03:56:46.706Z,2.20
2018-10-02T03:59:14.974Z,2.50
2018-10-02T04:01:43.295Z,2.67
2018-10-02T04:04:11.567Z,2.20
2018-10-02T04:06:39.964Z,2.50
2018-10-02T04:09:10.709Z,2.50
2018-10-02T04:11:38.941Z,2.50
2018-10-02T04:14:07.514Z,2.40
2018-10-02T04:16:35.790Z,2.13
2018-10-02T04:19:04.058Z,2.37
2018-10-02T04:21:34.968Z,2.40
2018-10-02T04:24:04.687Z,2.20
2018-10-02T04:26:33.567Z,2.30
2018-10-02T04:29:02.397Z,2.83
2018-10-02T04:31:31.487Z,2.00
2018-10-02T04:33:59.793Z,1.70
2018-10-02T04:36:28.772Z,2.57
2018-10-02T04:38:57.089Z,2.23
2018-10-02T04:41:25.350Z,2.13
2018-10-02T04:43:54.206Z,1.97
2018-10-02T04:46:22.549Z,2.33
2018-10-02T04:48:50.903Z,2.57
2018-10-02T04:51:19.313Z,2.57
2018-10-02T04:53:47.558Z,2.30
2018-10-02T04:56:15.792Z,2.10
2018-10-02T04:58:44.189Z,2.37
2018-10-02T05:01:12.438Z,2.43
2018-10-02T05:03:40.814Z,2.23
2018-10-02T05:06:09.028Z,2.30
2018-10-02T05:08:37.271Z,3.17
2018-10-02T05:11:05.594Z,2.03
2018-10-02T05:13:33.805Z,1.67
2018-10-02T05:16:02.098Z,2.07
2018-10-02T05:18:30.699Z,2.17
2018-10-02T05:20:59.326Z,2.20
2018-10-02T05:23:27.529Z,1.43
2018-10-02T05:25:55.809Z,1.73
2018-10-02T05:28:24.157Z,1.97
2018-10-02T05:30:52.460Z,2.00
2018-10-02T05:33:20.731Z,2.10
2018-10-02T05:35:49.014Z,1.93
2018-10-02T05:38:17.294Z,2.13
2018-10-02T05:40:45.645Z,1.90
2018-10-02T05:43:13.918Z,1.80
2018-10-02T05:45:42.181Z,1.60
2018-10-02T05:48:10.545Z,1.83
2018-10-02T05:50:38.777Z,2.47
2018-10-02T05:53:07.564Z,2.13
2018-10-02T05:55:35.921Z,2.00
2018-10-02T05:58:04.180Z,2.17
2018-10-02T06:00:32.495Z,1.70
2018-10-02T06:03:07.392Z,1.93
2018-10-02T06:05:35.647Z,1.83
2018-10-02T06:08:03.966Z,1.70
2018-10-02T06:10:32.221Z,1.80
2018-10-02T06:13:00.536Z,1.90
2018-10-02T06:15:28.807Z,1.80
2018-10-02T06:17:57.081Z,1.50
2018-10-02T06:20:25.254Z,1.57
2018-10-02T06:22:53.817Z,1.63
2018-10-02T06:25:22.232Z,1.90
2018-10-02T06:27:50.553Z,1.80
2018-10-02T06:30:18.913Z,1.43
2018-10-02T06:32:47.243Z,2.90
2018-10-02T06:35:15.462Z,1.60
2018-10-02T06:37:43.902Z,1.63
2018-10-02T06:40:12.131Z,1.87
2018-10-02T06:42:40.579Z,2.00
2018-10-02T06:45:09.442Z,2.43
2018-10-02T06:47:37.915Z,2.00
2018-10-02T06:50:06.210Z,1.60
2018-10-02T06:52:34.754Z,1.90
2018-10-02T06:55:03.531Z,1.87
2018-10-02T06:57:31.802Z,1.73
2018-10-02T07:00:00.089Z,1.83
2018-10-02T07:02:28.363Z,1.80
2018-10-02T07:04:56.585Z,2.07
2018-10-02T07:07:24.826Z,2.50
2018-10-02T07:09:53.077Z,2.33
2018-10-02T07:12:21.308Z,4.47
2018-10-02T07:14:51.064Z,3.17
2018-10-02T07:17:20.225Z,2.20
2018-10-02T07:19:49.231Z,2.00
2018-10-02T07:22:17.624Z,2.60
2018-10-02T07:24:46.369Z,2.00
2018-10-02T07:27:14.883Z,1.87
2018-10-02T07:29:43.078Z,2.10
2018-10-02T07:32:11.389Z,1.90
2018-10-02T07:34:39.748Z,1.90
2018-10-02T07:37:08.024Z,6.63
2018-10-02T07:39:36.870Z,2.33
2018-10-02T07:42:08.569Z,2.30
2018-10-02T07:44:37.517Z,2.20
2018-10-02T07:47:06.010Z,2.17
2018-10-02T07:49:34.360Z,1.67
2018-10-02T07:52:02.603Z,1.77
2018-10-02T07:54:30.891Z,1.70
2018-10-02T07:57:05.488Z,1.80
2018-10-02T07:59:34.498Z,1.97
2018-10-02T08:02:02.778Z,3.83
2018-10-02T08:04:31.110Z,2.77
2018-10-02T08:06:59.464Z,2.30
2018-10-02T08:09:27.844Z,1.60
2018-10-02T08:11:56.166Z,2.00
2018-10-02T08:14:24.422Z,2.07
2018-10-02T08:16:52.636Z,2.13
2018-10-02T08:19:20.913Z,1.80
2018-10-02T08:21:49.242Z,1.50
2018-10-02T08:24:17.453Z,1.43
2018-10-02T08:26:45.846Z,2.00
2018-10-02T08:29:14.035Z,1.50
2018-10-02T08:31:42.458Z,1.70
2018-10-02T08:34:10.795Z,2.67
2018-10-02T08:36:39.065Z,2.10
2018-10-02T08:39:11.488Z,1.43
2018-10-02T08:41:40.167Z,1.90
2018-10-02T08:44:09.055Z,2.07
2018-10-02T08:46:38.159Z,1.63
2018-10-02T08:49:06.455Z,1.80
2018-10-02T08:51:34.709Z,1.67
2018-10-02T08:54:03.061Z,1.93
2018-10-02T08:56:31.315Z,2.37
2018-10-02T08:58:59.563Z,1.90
2018-10-02T09:01:27.970Z,1.80
2018-10-02T09:03:56.266Z,1.77
2018-10-02T09:06:24.552Z,1.90
2018-10-02T09:08:53.143Z,2.67
2018-10-02T09:11:21.477Z,2.03
2018-10-02T09:13:49.722Z,1.50
2018-10-02T09:16:18.195Z,1.93
2018-10-02T09:18:46.442Z,2.10
2018-10-02T09:21:14.932Z,2.10
2018-10-02T09:23:43.459Z,2.10
2018-10-02T09:26:12.097Z,2.10
2018-10-02T09:28:40.447Z,2.30
2018-10-02T09:31:14.301Z,2.47
2018-10-02T09:33:47.826Z,2.90
2018-10-02T09:37:24.207Z,2.23
2018-10-02T09:39:57.979Z,2.50
2018-10-02T09:42:31.793Z,2.73
2018-10-02T09:45:00.390Z,2.00
2018-10-02T09:47:28.734Z,2.10
2018-10-02T09:49:57.110Z,1.87
2018-10-02T09:52:25.534Z,2.60
2018-10-02T09:54:53.917Z,2.37
2018-10-02T09:57:22.231Z,2.07
2018-10-02T09:59:50.555Z,2.00
2018-10-02T10:02:24.270Z,2.27
2018-10-02T10:04:52.503Z,2.23
2018-10-02T10:07:20.871Z,2.20
2018-10-02T10:09:49.161Z,2.40
2018-10-02T10:12:17.467Z,2.40
2018-10-02T10:14:46.407Z,2.20
2018-10-02T10:17:14.806Z,1.97
2018-10-02T10:19:42.986Z,1.83
2018-10-02T10:22:11.330Z,1.80
2018-10-02T10:24:39.600Z,2.00
2018-10-02T10:27:07.877Z,2.00
2018-10-02T10:29:38.026Z,2.30
2018-10-02T10:32:06.537Z,2.60
2018-10-02T10:34:35.018Z,2.07
2018-10-02T10:37:03.355Z,2.37
2018-10-02T10:39:32.000Z,1.90
2018-10-02T10:42:00.458Z,2.30
2018-10-02T10:44:30.642Z,2.17
2018-10-02T10:46:59.142Z,1.80
2018-10-02T10:49:27.668Z,2.03
2018-10-02T10:51:55.887Z,2.00
2018-10-02T10:54:24.203Z,1.90
2018-10-02T10:56:52.482Z,2.30
2018-10-02T10:59:20.745Z,2.00
2018-10-02T11:01:49.862Z,2.20
2018-10-02T11:04:18.403Z,2.17
2018-10-02T11:06:46.750Z,2.20
2018-10-02T11:09:15.384Z,2.13
2018-10-02T11:11:43.658Z,2.10
2018-10-02T11:14:12.428Z,2.20
2018-10-02T11:16:40.938Z,2.63
2018-10-02T11:19:09.271Z,2.83
2018-10-02T11:21:37.747Z,3.70
2018-10-02T11:24:06.073Z,3.00
2018-10-02T11:26:34.425Z,3.23
2018-10-02T11:29:02.652Z,3.47
2018-10-02T11:31:30.918Z,2.97
2018-10-02T11:33:59.123Z,2.67
2018-10-02T11:36:27.492Z,2.60
2018-10-02T11:38:55.750Z,2.83
2018-10-02T11:41:24.802Z,2.30
2018-10-02T11:43:53.114Z,3.00
2018-10-02T11:46:21.265Z,2.10
2018-10-02T11:48:49.466Z,2.63
2018-10-02T11:51:17.780Z,2.47
2018-10-02T11:53:46.058Z,2.27
2018-10-02T11:56:14.451Z,2.40
2018-10-02T11:58:42.678Z,2.60
2018-10-02T12:01:11.079Z,2.53
2018-10-02T12:03:39.244Z,2.60
2018-10-02T12:06:07.567Z,2.60
2018-10-02T12:08:35.918Z,3.03
2018-10-02T12:11:04.625Z,2.97
2018-10-02T12:13:33.415Z,3.40
2018-10-02T12:16:01.544Z,2.80
2018-10-02T12:18:29.802Z,2.83
2018-10-02T12:20:58.021Z,2.17
2018-10-02T12:23:26.702Z,1.97
2018-10-02T12:25:54.935Z,1.80
2018-10-02T12:28:23.227Z,2.07
2018-10-02T12:30:51.525Z,1.90
2018-10-02T12:33:19.775Z,1.63
2018-10-02T12:35:48.025Z,1.20
2018-10-02T12:38:16.262Z,1.50
2018-10-02T12:40:45.942Z,1.40
2018-10-02T12:43:14.680Z,1.27
2018-10-02T12:45:43.856Z,1.40
2018-10-02T12:48:12.963Z,1.53
2018-10-02T12:50:41.993Z,1.33
2018-10-02T12:53:10.317Z,1.20
2018-10-02T12:55:38.551Z,1.27
2018-10-02T12:58:07.522Z,1.20
2018-10-02T13:00:35.859Z,1.40
2018-10-02T13:03:04.237Z,1.27
2018-10-02T13:05:32.530Z,0.83
2018-10-02T13:08:01.782Z,1.30
2018-10-02T13:10:30.200Z,1.20
2018-10-02T13:12:58.477Z,1.60
2018-10-02T13:15:26.843Z,1.33
2018-10-02T13:17:55.123Z,1.00
2018-10-02T13:20:23.396Z,1.20
2018-10-02T13:22:51.979Z,1.77
2018-10-02T13:25:20.258Z,1.43
2018-10-02T13:27:48.539Z,1.83
2018-10-02T13:30:17.290Z,1.60
2018-10-02T13:32:45.616Z,1.30
2018-10-02T13:35:13.931Z,1.67
2018-10-02T13:37:42.818Z,1.50
2018-10-02T13:40:11.237Z,1.50
2018-10-02T13:42:39.711Z,1.70
2018-10-02T13:45:08.120Z,1.23
2018-10-02T13:47:36.329Z,1.70
2018-10-02T13:50:04.974Z,1.70
2018-10-02T13:52:33.211Z,1.70
2018-10-02T13:55:01.571Z,1.77
2018-10-02T13:57:30.109Z,1.50
2018-10-02T13:59:58.694Z,1.60
2018-10-02T14:02:26.969Z,1.53
2018-10-02T14:04:55.251Z,1.80
2018-10-02T14:07:23.553Z,1.67
2018-10-02T14:09:51.802Z,1.30
2018-10-02T14:12:20.127Z,1.77
2018-10-02T14:14:54.897Z,2.03
2018-10-02T14:17:23.113Z,1.80
2018-10-02T14:19:51.358Z,2.13
2018-10-02T14:22:19.718Z,2.00
2018-10-02T14:24:48.864Z,2.00
2018-10-02T14:27:18.760Z,2.20
2018-10-02T14:29:47.148Z,2.40
2018-10-02T14:32:15.620Z,2.40
2018-10-02T14:34:44.224Z,2.87
2018-10-02T14:37:12.684Z,3.07
2018-10-02T14:39:41.451Z,3.10
2018-10-02T14:42:15.778Z,3.00
2018-10-02T14:44:44.098Z,3.97
2018-10-02T14:47:12.350Z,3.53
2018-10-02T14:49:40.766Z,3.60
2018-10-02T14:52:09.097Z,3.93
2018-10-02T14:54:37.610Z,4.33
2018-10-02T14:57:06.863Z,4.27
2018-10-02T14:59:36.085Z,4.30
2018-10-02T15:02:04.349Z,3.93
2018-10-02T15:04:32.574Z,3.97
2018-10-02T15:07:02.386Z,4.10
2018-10-02T15:09:31.382Z,5.23
2018-10-02T15:11:59.697Z,4.50
2018-10-02T15:14:27.978Z,4.03
2018-10-02T15:16:56.326Z,4.30
2018-10-02T15:19:24.570Z,4.57
2018-10-02T15:21:53.882Z,5.07
2018-10-02T15:24:22.358Z,6.13
2018-10-02T15:26:50.659Z,5.83
2018-10-02T15:29:18.985Z,6.53
2018-10-02T15:31:47.299Z,7.07
2018-10-02T15:34:16.342Z,6.40
2018-10-02T15:36:44.709Z,6.17
2018-10-02T15:39:13.067Z,6.70
2018-10-02T15:41:41.419Z,6.03
2018-10-02T15:44:10.177Z,5.57
2018-10-02T15:46:46.150Z,5.73
2018-10-02T15:49:15.056Z,5.40
2018-10-02T15:51:43.335Z,5.67
2018-10-02T15:54:11.752Z,5.37
2018-10-02T15:56:40.037Z,5.07
2018-10-02T15:59:15.070Z,4.30
2018-10-02T16:01:43.365Z,4.90
2018-10-02T16:04:11.839Z,5.73
2018-10-02T16:06:40.433Z,4.87
2018-10-02T16:09:09.254Z,5.17
2018-10-02T16:11:37.523Z,5.23
2018-10-02T16:14:05.750Z,5.67
2018-10-02T16:16:34.202Z,5.80
2018-10-02T16:19:02.858Z,6.93
2018-10-02T16:21:31.464Z,6.00
2018-10-02T16:23:59.718Z,6.43
2018-10-02T16:26:28.418Z,5.60
2018-10-02T16:28:56.649Z,5.60
2018-10-02T16:31:25.025Z,5.60
2018-10-02T16:33:53.250Z,6.07
2018-10-02T16:36:21.522Z,7.20
2018-10-02T16:38:49.732Z,7.00
2018-10-02T16:41:17.978Z,7.10
2018-10-02T16:43:46.243Z,7.03
2018-10-02T16:46:14.569Z,7.20
2018-10-02T16:48:43.071Z,7.97
2018-10-02T16:51:11.385Z,9.60
2018-10-02T16:53:39.614Z,9.03
2018-10-02T16:56:08.705Z,8.87
2018-10-02T16:58:36.959Z,8.07
2018-10-02T17:01:05.173Z,8.17
2018-10-02T17:03:33.619Z,7.70
2018-10-02T17:06:01.851Z,7.90
2018-10-02T17:08:30.135Z,7.50
2018-10-02T17:10:58.416Z,6.90
2018-10-02T17:13:26.691Z,7.40
2018-10-02T17:15:54.918Z,8.17
2018-10-02T17:18:23.150Z,8.93
2018-10-02T17:20:51.488Z,8.73
2018-10-02T17:23:19.787Z,7.67
2018-10-02T17:25:48.050Z,8.47
2018-10-02T17:28:17.986Z,8.67
2018-10-02T17:30:46.223Z,10.20
2018-10-02T17:33:14.514Z,10.07
2018-10-02T17:35:43.615Z,9.23
2018-10-02T17:38:12.127Z,9.00
2018-10-02T17:40:40.458Z,8.60
2018-10-02T17:43:38.902Z,10.63
2018-10-02T17:46:07.217Z,9.97
2018-10-02T17:48:39.741Z,9.20
2018-10-02T17:51:07.988Z,9.87
2018-10-02T17:53:37.291Z,11.33
2018-10-02T17:56:06.393Z,10.50
2018-10-02T17:58:34.643Z,10.33
2018-10-02T18:01:02.867Z,10.70
2018-10-02T18:03:31.266Z,10.07
2018-10-02T18:05:59.530Z,10.10
2018-10-02T18:08:28.680Z,9.30
2018-10-02T18:10:56.877Z,9.70
2018-10-02T18:13:26.092Z,9.00
2018-10-02T18:15:54.479Z,9.63
2018-10-02T18:18:23.673Z,8.20
2018-10-02T18:20:52.091Z,10.80
2018-10-02T18:23:21.556Z,10.33
2018-10-02T18:25:50.431Z,10.13
2018-10-02T18:28:18.815Z,11.07
2018-10-02T18:30:47.361Z,11.93
2018-10-02T18:33:16.087Z,12.30
2018-10-02T18:35:45.044Z,12.40
2018-10-02T18:38:13.454Z,11.60
2018-10-02T18:40:42.935Z,12.80
2018-10-02T18:43:11.398Z,11.40
2018-10-02T18:45:39.974Z,10.03
2018-10-02T18:48:08.527Z,9.80
2018-10-02T18:50:36.782Z,9.27
2018-10-02T18:53:06.487Z,9.13
2018-10-02T18:55:37.661Z,9.80
2018-10-02T18:58:07.942Z,10.90
2018-10-02T19:00:36.975Z,9.50
2018-10-02T19:03:05.267Z,9.30
2018-10-02T19:05:35.750Z,9.50
2018-10-02T19:08:04.154Z,8.80
2018-10-02T19:10:32.562Z,9.23
2018-10-02T19:13:01.617Z,10.70
2018-10-02T19:15:35.298Z,11.57
2018-10-02T19:18:03.516Z,11.60
2018-10-02T19:20:37.487Z,10.00
2018-10-02T19:23:06.565Z,10.30
2018-10-02T19:25:40.608Z,10.73
2018-10-02T19:28:09.129Z,9.80
2018-10-02T19:30:42.678Z,11.37
2018-10-02T19:33:10.994Z,19.07
2018-10-02T19:35:39.333Z,12.03
2018-10-02T19:38:13.030Z,10.57
2018-10-02T19:40:41.844Z,9.80
2018-10-02T19:43:10.184Z,10.63
2018-10-02T19:45:43.811Z,10.73
2018-10-02T19:48:12.167Z,11.03
2018-10-02T19:50:40.872Z,9.83
2018-10-02T19:53:09.181Z,14.20
2018-10-02T19:55:38.577Z,11.00
2018-10-02T19:58:07.056Z,9.87
2018-10-02T20:00:35.599Z,10.87
2018-10-02T20:03:03.986Z,10.53
2018-10-02T20:05:33.573Z,10.47
2018-10-02T20:08:01.864Z,52.73
2018-10-02T20:10:30.171Z,16.60
2018-10-02T20:13:01.052Z,13.07
2018-10-02T20:15:29.374Z,10.67
2018-10-02T20:17:58.693Z,12.70
2018-10-02T20:20:26.970Z,11.53
2018-10-02T20:22:55.599Z,13.63
2018-10-02T20:25:25.498Z,11.80
2018-10-02T20:27:55.385Z,18.97
2018-10-02T20:30:23.870Z,10.43
2018-10-02T20:32:53.139Z,10.70
2018-10-02T20:35:21.780Z,11.03
2018-10-02T20:37:51.464Z,13.80
2018-10-02T20:40:20.497Z,11.07
2018-10-02T20:42:48.883Z,11.97
2018-10-02T20:45:17.919Z,19.90
2018-10-02T20:47:46.292Z,15.40
2018-10-02T20:50:14.592Z,11.93
2018-10-02T20:52:42.815Z,13.30
2018-10-02T20:55:11.421Z,13.97
2018-10-02T20:57:39.686Z,13.63
2018-10-02T21:00:07.965Z,15.50
2018-10-02T21:02:36.254Z,13.80
2018-10-02T21:05:04.556Z,13.70
2018-10-02T21:07:32.833Z,14.13
2018-10-02T21:10:01.120Z,13.90
2018-10-02T21:12:29.476Z,12.97
2018-10-02T21:14:58.081Z,13.63
2018-10-02T21:17:26.319Z,14.23
2018-10-02T21:19:55.224Z,20.20
2018-10-02T21:22:23.446Z,14.90
2018-10-02T21:24:51.691Z,14.47
2018-10-02T21:27:19.931Z,14.27
2018-10-02T21:29:53.206Z,14.83
2018-10-02T21:32:22.108Z,16.87
2018-10-02T21:34:50.383Z,27.30
2018-10-02T21:37:18.668Z,18.90
2018-10-02T21:39:47.629Z,15.37
2018-10-02T21:42:15.994Z,15.03
2018-10-02T21:44:45.335Z,16.30
2018-10-02T21:47:13.703Z,16.67
2018-10-02T21:49:42.983Z,15.97
2018-10-02T21:52:11.755Z,16.07
2018-10-02T21:54:39.958Z,15.30
2018-10-02T21:57:08.204Z,45.03
2018-10-02T21:59:36.479Z,20.67
2018-10-02T22:02:04.705Z,15.07
2018-10-02T22:04:32.950Z,18.07
2018-10-02T22:07:01.207Z,16.10
2018-10-02T22:09:29.573Z,19.23
2018-10-02T22:11:57.782Z,15.73
2018-10-02T22:14:26.897Z,18.67
2018-10-02T22:16:56.398Z,14.90
2018-10-02T22:19:24.661Z,14.80
2018-10-02T22:21:53.725Z,14.30
2018-10-02T22:24:22.647Z,14.63
2018-10-02T22:26:50.926Z,14.80
2018-10-02T22:29:19.816Z,14.53
2018-10-02T22:31:48.270Z,15.03
2018-10-02T22:34:16.524Z,15.23
2018-10-02T22:36:44.772Z,14.37
2018-10-02T22:39:13.935Z,14.50
2018-10-02T22:41:53.116Z,13.43
2018-10-02T22:44:21.521Z,14.33
2018-10-02T22:46:49.807Z,14.97
2018-10-02T22:49:18.101Z,15.40
2018-10-02T22:51:46.351Z,14.97
2018-10-02T22:54:14.618Z,14.70
2018-10-02T22:56:42.902Z,15.63
2018-10-02T22:59:11.217Z,15.33
2018-10-02T23:01:39.473Z,15.30
2018-10-02T23:04:07.730Z,15.90
2018-10-02T23:06:35.998Z,15.00
2018-10-02T23:09:07.552Z,14.87
2018-10-02T23:11:35.720Z,14.40
2018-10-02T23:14:03.930Z,14.10
2018-10-02T23:16:32.192Z,12.40
2018-10-02T23:19:00.438Z,14.07
2018-10-02T23:21:29.418Z,12.23
2018-10-02T23:23:57.621Z,12.57
2018-10-02T23:26:25.890Z,11.97
2018-10-02T23:28:54.166Z,11.33
2018-10-02T23:31:22.447Z,10.97
2018-10-02T23:33:50.735Z,11.07
2018-10-02T23:36:18.926Z,9.63
2018-10-02T23:38:53.766Z,9.20
2018-10-02T23:41:21.991Z,9.97
2018-10-02T23:43:50.210Z,10.63
2018-10-02T23:46:18.474Z,11.27
2018-10-02T23:48:46.696Z,12.23
2018-10-02T23:51:15.539Z,11.73
2018-10-02T23:53:43.793Z,12.43
2018-10-02T23:56:12.018Z,13.00
2018-10-02T23:58:40.243Z,13.57
